Time;durP1;ratioP1;P1;durP2;ratioP2;P2;SDS_P1;SDS_P2;PMS_P1;PMS_P2;Temp;Humidity;BMP_temperature;BMP_pressure;BME280_temperature;BME280_humidity;BME280_pressure;Samples;Min_cycle;Max_cycle;Signal;HPM_P1;HPM_P2
2022/10/05 00:01:26;;;;;;;1.25;1.15;;;;;;;14.66;87.00;101710.13;5057905;28;20080;-73
2022/10/05 00:03:57;;;;;;;1.75;1.27;;;;;;;14.66;86.87;101719.78;5057922;28;20300;-73
2022/10/05 00:06:25;;;;;;;1.98;1.20;;;;;;;14.65;86.42;101716.31;5039268;28;20332;-73
2022/10/05 00:08:50;;;;;;;5.18;1.00;;;;;;;14.65;86.25;101708.41;5057751;28;20024;-73
2022/10/05 00:11:16;;;;;;;1.42;1.27;;;;;;;14.65;86.19;101711.03;5074619;28;20047;-73
2022/10/05 00:13:42;;;;;;;1.17;0.88;;;;;;;14.64;86.42;101705.84;5059062;28;20060;-73
2022/10/05 00:16:15;;;;;;;0.95;0.90;;;;;;;14.64;86.47;101700.56;5060876;28;20064;-73
2022/10/05 00:18:44;;;;;;;0.90;0.80;;;;;;;14.64;86.53;101701.41;5057284;28;20036;-73
2022/10/05 00:21:32;;;;;;;2.72;1.00;;;;;;;14.64;86.42;101690.88;5072513;28;20031;-73
2022/10/05 00:23:59;;;;;;;1.70;1.00;;;;;;;14.63;86.36;101697.06;5068249;28;20267;-73
2022/10/05 00:26:26;;;;;;;2.13;1.25;;;;;;;14.63;86.36;101690.94;5074439;28;20036;-73
2022/10/05 00:28:53;;;;;;;2.13;0.88;;;;;;;14.62;86.14;101691.88;5058458;28;20140;-73
2022/10/05 00:31:24;;;;;;;3.78;1.00;;;;;;;14.61;86.30;101696.28;5073058;28;20085;-73
2022/10/05 00:33:50;;;;;;;4.13;1.00;;;;;;;14.61;85.86;101688.38;5077353;28;20343;-73
2022/10/05 00:36:16;;;;;;;0.80;0.80;;;;;;;14.61;86.11;101684.88;5061166;28;20154;-72
2022/10/05 00:38:42;;;;;;;2.80;1.00;;;;;;;14.60;86.13;101686.66;5055557;28;20039;-73
2022/10/05 00:41:11;;;;;;;1.13;0.90;;;;;;;14.61;86.04;101682.22;5071778;28;20055;-73
2022/10/05 00:43:36;;;;;;;;;;;;;;;14.60;86.26;101684.03;5075579;28;20029;-73
2022/10/05 00:46:10;;;;;;;3.13;0.98;;;;;;;14.59;85.40;101679.69;5064731;28;19920;-73
2022/10/05 00:48:41;;;;;;;4.95;1.08;;;;;;;14.57;85.79;101669.22;5063024;28;20051;-73
2022/10/05 00:51:30;;;;;;;0.90;0.90;;;;;;;14.58;85.82;101667.41;5055434;28;20052;-73
2022/10/05 00:54:18;;;;;;;;;;;;;;;14.57;85.84;101657.75;5056986;28;20352;-73
2022/10/05 00:57:02;;;;;;;1.85;1.02;;;;;;;14.56;85.71;101659.53;5070967;28;19916;-73
2022/10/05 00:59:45;;;;;;;1.23;1.00;;;;;;;14.55;85.69;101656.97;5076220;28;20047;-73
2022/10/05 01:02:16;;;;;;;3.53;1.13;;;;;;;14.55;85.47;101649.06;5076554;28;20035;-73
2022/10/05 01:05:03;;;;;;;4.90;1.75;;;;;;;14.54;85.45;101650.00;5058121;28;20306;-73
2022/10/05 01:07:32;;;;;;;1.13;0.90;;;;;;;14.54;85.26;101644.72;5069545;28;20035;-73
2022/10/05 01:10:20;;;;;;;2.72;1.38;;;;;;;14.53;84.92;101640.38;5065534;28;20024;-73
2022/10/05 01:13:04;;;;;;;2.55;0.90;;;;;;;14.53;85.17;101628.03;5065559;28;20084;-73
2022/10/05 01:15:44;;;;;;;5.85;0.80;;;;;;;14.53;84.89;101624.56;5072268;28;20205;-73
2022/10/05 01:18:21;;;;;;;1.50;0.90;;;;;;;14.51;85.06;101619.34;5056325;28;20060;-73
2022/10/05 01:21:20;;;;;;;2.88;0.80;;;;;;;14.51;85.02;101616.72;5062144;28;20025;-73
2022/10/05 01:23:48;;;;;;;0.80;0.80;;;;;;;14.51;84.89;101618.50;5076453;28;20411;-73
2022/10/05 01:26:23;;;;;;;1.05;0.93;;;;;;;14.51;85.38;101619.34;5067184;28;20033;-73
2022/10/05 01:29:17;;;;;;;1.98;0.95;;;;;;;14.49;85.22;101613.28;5057313;28;20031;-73
2022/10/05 01:31:46;;;;;;;1.80;1.30;;;;;;;14.50;85.77;101617.66;5044523;28;20045;-73
2022/10/05 01:34:30;;;;;;;1.70;1.58;;;;;;;14.50;85.97;101611.53;5058137;28;20028;-75
2022/10/05 01:37:32;;;;;;;5.50;1.75;;;;;;;14.49;85.84;101623.00;5062310;28;20348;-73
2022/10/05 01:40:22;;;;;;;3.70;2.15;;;;;;;14.49;86.00;101623.00;5054674;28;20025;-73
2022/10/05 01:43:01;;;;;;;4.68;2.80;;;;;;;14.48;85.99;101616.88;5074149;28;20036;-73
2022/10/05 01:45:33;;;;;;;7.25;2.50;;;;;;;14.48;86.35;101616.00;5057676;28;20036;-73
2022/10/05 01:48:32;;;;;;;2.70;2.50;;;;;;;14.47;86.43;101606.41;5054615;28;20033;-73
2022/10/05 01:51:10;;;;;;;6.47;3.15;;;;;;;14.47;86.92;101583.53;5055356;28;20329;-73
2022/10/05 01:53:57;;;;;;;3.33;3.00;;;;;;;14.48;87.05;101584.38;5055121;28;20036;-73
2022/10/05 01:56:37;;;;;;;7.43;3.10;;;;;;;14.48;87.01;101579.97;5056195;28;20056;-73
2022/10/05 01:59:44;;;;;;;5.18;3.42;;;;;;;14.47;87.06;101566.88;5073909;28;20034;-73
2022/10/05 02:02:15;;;;;;;3.22;2.65;;;;;;;14.46;87.21;101580.94;5063833;28;20162;-73
2022/10/05 02:04:45;;;;;;;5.95;3.13;;;;;;;14.45;87.29;101581.91;5055885;28;20024;-73
2022/10/05 02:07:21;;;;;;;3.25;2.75;;;;;;;14.44;87.33;101559.94;5060892;28;20201;-73
2022/10/05 02:09:57;;;;;;;3.42;3.00;;;;;;;14.46;87.46;101560.75;5055522;28;20033;-73
2022/10/05 02:12:26;;;;;;;3.67;2.70;;;;;;;14.45;87.26;101553.75;5045143;28;20363;-73
2022/10/05 02:15:01;;;;;;;4.13;3.20;;;;;;;14.45;87.46;101545.00;5055911;28;20037;-73
2022/10/05 02:17:37;;;;;;;3.50;3.08;;;;;;;14.44;87.84;101536.22;5053251;28;20402;-73
2022/10/05 02:20:09;;;;;;;6.10;3.08;;;;;;;14.44;87.79;101533.59;5054364;28;20016;-73
2022/10/05 02:22:42;;;;;;;2.97;2.70;;;;;;;14.43;87.49;101533.69;5057027;28;20029;-73
2022/10/05 02:25:13;;;;;;;5.35;2.90;;;;;;;14.43;87.74;101536.31;5057694;28;20024;-73
2022/10/05 02:27:51;;;;;;;5.35;3.47;;;;;;;14.42;87.87;101538.06;5064308;28;20321;-73
2022/10/05 02:30:18;;;;;;;5.20;2.85;;;;;;;14.42;88.01;101543.34;5055542;28;20097;-73
2022/10/05 02:32:55;;;;;;;4.90;3.17;;;;;;;14.41;87.88;101541.66;5053095;28;20299;-73
2022/10/05 02:35:22;;;;;;;3.70;3.00;;;;;;;14.42;87.92;101535.44;5054657;28;20032;-73
2022/10/05 02:37:59;;;;;;;3.60;3.30;;;;;;;14.41;88.03;101544.28;5065969;28;20032;-73
2022/10/05 02:40:34;;;;;;;3.22;2.92;;;;;;;14.40;88.05;101540.78;5067433;28;20431;-73
2022/10/05 02:43:20;;;;;;;4.38;3.38;;;;;;;14.40;88.08;101538.13;5056414;28;20495;-74
2022/10/05 02:46:04;;;;;;;5.53;3.53;;;;;;;14.40;88.20;101542.56;5057886;28;20096;-74
2022/10/05 02:48:41;;;;;;;4.38;3.38;;;;;;;14.40;88.24;101543.41;5073696;28;20280;-74
2022/10/05 02:51:19;;;;;;;7.30;3.67;;;;;;;14.40;88.44;101530.22;5078832;28;20025;-74
2022/10/05 02:54:18;;;;;;;3.47;3.13;;;;;;;14.39;88.40;101535.59;5062363;28;20104;-73
2022/10/05 02:56:53;;;;;;;4.22;3.60;;;;;;;14.38;88.52;101540.00;5059005;28;20051;-74
2022/10/05 02:59:23;;;;;;;6.22;3.97;;;;;;;14.38;88.36;101536.50;5078489;28;20024;-74
2022/10/05 03:01:54;;;;;;;3.65;3.35;;;;;;;14.38;88.66;101537.34;5078636;28;20239;-74
2022/10/05 03:04:30;;;;;;;4.90;3.25;;;;;;;14.38;88.24;101533.88;5058459;28;20058;-74
2022/10/05 03:07:17;;;;;;;4.10;3.70;;;;;;;14.37;87.95;101543.56;5058770;28;20033;-74
2022/10/05 03:09:56;;;;;;;3.58;3.28;;;;;;;14.36;87.99;101539.22;5058525;28;20231;-73
2022/10/05 03:12:59;;;;;;;3.20;3.00;;;;;;;14.36;88.00;101535.72;5046656;28;20024;-74
2022/10/05 03:16:11;;;;;;;4.25;3.08;;;;;;;14.36;88.36;101533.09;5058303;28;20029;-74
2022/10/05 03:18:44;;;;;;;2.78;2.58;;;;;;;14.36;88.25;101528.66;5061572;28;20029;-73
2022/10/05 03:21:32;;;;;;;2.88;2.67;;;;;;;14.36;87.78;101522.56;5058307;28;20371;-73
2022/10/05 03:24:24;;;;;;;3.75;3.40;;;;;;;14.36;87.82;101528.66;5058916;28;20232;-73
2022/10/05 03:27:08;;;;;;;5.75;2.70;;;;;;;14.35;87.70;101526.97;5058374;28;20062;-73
2022/10/05 03:29:46;;;;;;;2.45;2.25;;;;;;;14.35;88.13;101526.09;5075344;28;20033;-74
2022/10/05 03:32:49;;;;;;;7.03;3.05;;;;;;;14.35;87.70;101521.72;5059942;28;20346;-74
2022/10/05 03:35:26;;;;;;;5.35;3.22;;;;;;;14.34;87.75;101525.25;5044008;28;20119;-73
2022/10/05 03:38:17;;;;;;;2.72;2.53;;;;;;;14.34;87.80;101525.25;5054316;28;20084;-73
2022/10/05 03:41:04;;;;;;;3.03;2.72;;;;;;;14.34;87.69;101516.50;5077673;28;20035;-73
2022/10/05 03:43:44;;;;;;;2.90;2.67;;;;;;;14.34;87.42;101513.88;5077004;28;20032;-73
2022/10/05 03:46:26;;;;;;;3.22;2.90;;;;;;;14.33;87.61;101517.41;5077461;28;20102;-74
2022/10/05 03:49:15;;;;;;;4.07;2.90;;;;;;;14.33;87.49;101510.34;5074280;28;20235;-73
2022/10/05 03:51:59;;;;;;;2.97;2.78;;;;;;;14.33;87.60;101509.50;5078030;28;20058;-74
2022/10/05 03:54:31;;;;;;;4.60;2.88;;;;;;;14.32;87.52;101519.19;5071992;28;20040;-73
2022/10/05 03:57:34;;;;;;;3.38;2.80;;;;;;;14.32;87.61;101507.81;5059951;28;20032;-74
2022/10/05 04:00:16;;;;;;;4.30;2.65;;;;;;;14.32;86.81;101507.81;5044206;28;20356;-73
2022/10/05 04:02:53;;;;;;;3.17;2.70;;;;;;;14.30;86.89;101510.50;5057417;28;20104;-74
2022/10/05 04:05:24;;;;;;;3.70;2.20;;;;;;;14.30;87.21;101512.31;5059471;28;20311;-74
2022/10/05 04:08:01;;;;;;;3.10;2.38;;;;;;;14.29;87.11;101506.16;5059525;28;20052;-74
2022/10/05 04:11:00;;;;;;;2.25;2.05;;;;;;;14.29;86.99;101506.16;5060894;28;20321;-74
2022/10/05 04:13:42;;;;;;;4.22;2.47;;;;;;;14.29;87.03;101497.41;5058659;28;20035;-74
2022/10/05 04:16:37;;;;;;;2.28;2.10;;;;;;;14.29;87.07;101503.53;5059493;28;20024;-74
2022/10/05 04:19:21;;;;;;;2.30;2.10;;;;;;;14.29;86.94;101500.03;5067376;28;20064;-73
2022/10/05 04:22:02;;;;;;;2.08;1.98;;;;;;;14.28;86.84;101512.38;5057355;28;20028;-74
2022/10/05 04:24:33;;;;;;;2.22;2.03;;;;;;;14.28;86.89;101499.19;5060193;28;20332;-74
2022/10/05 04:27:13;;;;;;;2.38;2.10;;;;;;;14.28;86.71;101493.94;5077010;28;20043;-73
2022/10/05 04:29:44;;;;;;;2.00;1.90;;;;;;;14.28;86.70;101495.69;5066169;28;20315;-73
2022/10/05 04:32:34;;;;;;;2.20;2.00;;;;;;;14.28;86.68;101499.19;5057116;28;20271;-73
2022/10/05 04:35:17;;;;;;;1.88;1.77;;;;;;;14.27;86.87;101486.09;5070445;28;20074;-74
2022/10/05 04:37:45;;;;;;;1.67;1.58;;;;;;;14.27;86.88;101483.44;5076545;28;20121;-74
2022/10/05 04:40:52;;;;;;;1.47;1.30;;;;;;;14.26;86.65;101472.06;5064176;28;20052;-74
2022/10/05 04:43:39;;;;;;;2.15;1.60;;;;;;;14.26;86.24;101473.81;5044954;28;20362;-74
2022/10/05 04:46:42;;;;;;;1.55;1.40;;;;;;;14.25;86.43;101472.97;5057239;28;20363;-74
2022/10/05 04:49:29;;;;;;;2.30;1.30;;;;;;;14.24;86.51;101467.78;5060789;28;20028;-74
2022/10/05 04:52:16;;;;;;;1.30;1.02;;;;;;;14.24;86.10;101462.50;5072693;28;20037;-73
2022/10/05 04:55:03;;;;;;;1.17;1.08;;;;;;;14.22;86.12;101465.22;5064061;28;20083;-73
2022/10/05 04:58:01;;;;;;;1.90;1.10;;;;;;;14.21;86.38;101459.09;5057291;28;20031;-73
2022/10/05 05:00:52;;;;;;;1.30;1.20;;;;;;;14.22;86.26;101457.31;5050326;28;20040;-74
2022/10/05 05:03:47;;;;;;;2.40;1.10;;;;;;;14.21;85.79;101460.88;5028857;28;20040;-73
2022/10/05 05:06:40;;;;;;;1.10;1.00;;;;;;;14.20;86.12;101457.38;5057214;28;20028;-74
2022/10/05 05:09:12;;;;;;;0.75;0.75;;;;;;;14.20;86.27;101459.16;5075324;28;20430;-73
2022/10/05 05:11:52;;;;;;;1.80;1.17;;;;;;;14.20;86.37;101449.47;5059200;28;20308;-73
2022/10/05 05:14:33;;;;;;;1.63;0.80;;;;;;;14.20;86.08;101443.34;5073872;28;20041;-73
2022/10/05 05:17:01;;;;;;;2.00;1.13;;;;;;;14.19;86.42;101447.78;5038770;28;20037;-74
2022/10/05 05:19:38;;;;;;;0.80;0.80;;;;;;;14.19;86.40;101439.88;5058299;28;20305;-74
2022/10/05 05:22:11;;;;;;;0.85;0.80;;;;;;;14.19;86.52;101441.66;5058160;28;20028;-74
2022/10/05 05:24:57;;;;;;;1.02;0.98;;;;;;;14.18;86.10;101446.06;5072802;28;20033;-74
2022/10/05 05:27:40;;;;;;;0.85;0.77;;;;;;;14.20;86.28;101435.44;5054235;28;20078;-74
2022/10/05 05:30:15;;;;;;;0.85;0.85;;;;;;;14.18;86.59;101440.78;5062246;28;20142;-73
2022/10/05 05:32:56;;;;;;;1.15;0.95;;;;;;;14.19;86.51;101445.16;5065223;28;20056;-74
2022/10/05 05:35:39;;;;;;;1.20;1.10;;;;;;;14.18;86.63;101432.03;5062889;28;20032;-74
2022/10/05 05:38:28;;;;;;;1.65;0.73;;;;;;;14.17;86.47;101431.19;5074349;28;20367;-74
2022/10/05 05:41:00;;;;;;;;;;;;;;;14.17;86.30;101433.81;5051870;28;20330;-74
2022/10/05 05:43:44;;;;;;;2.25;1.10;;;;;;;14.16;86.11;101432.09;5054002;28;19927;-74
2022/10/05 05:46:32;;;;;;;1.08;0.60;;;;;;;14.15;86.47;101434.81;5064526;28;20077;-74
2022/10/05 05:48:57;;;;;;;0.87;0.80;;;;;;;14.15;86.38;101430.41;5057926;28;20027;-74
2022/10/05 05:51:34;;;;;;;1.90;0.90;;;;;;;14.16;86.30;101431.25;5071199;28;20036;-73
2022/10/05 05:54:15;;;;;;;1.60;1.00;;;;;;;14.15;86.62;101427.78;5072398;28;20039;-74
2022/10/05 05:56:51;;;;;;;1.85;1.13;;;;;;;14.15;86.47;101427.78;5048971;28;20107;-74
2022/10/05 05:59:23;;;;;;;1.50;0.90;;;;;;;14.14;85.91;101428.69;5074995;28;20029;-74
2022/10/05 06:01:53;;;;;;;0.90;0.90;;;;;;;14.15;86.08;101429.53;5056372;28;20017;-73
2022/10/05 06:04:27;;;;;;;1.00;1.00;;;;;;;14.15;86.53;101438.31;5075124;28;20044;-73
2022/10/05 06:06:55;;;;;;;4.10;1.33;;;;;;;14.14;86.38;101433.13;5074027;28;20434;-74
2022/10/05 06:09:25;;;;;;;1.67;1.00;;;;;;;14.15;86.26;101429.53;5055424;28;20258;-73
2022/10/05 06:12:07;;;;;;;3.58;1.05;;;;;;;14.13;86.41;101426.97;5050376;28;20103;-74
2022/10/05 06:14:44;;;;;;;3.70;1.27;;;;;;;14.14;86.60;101435.75;5052964;28;20060;-74
2022/10/05 06:17:17;;;;;;;1.63;1.00;;;;;;;14.14;86.78;101441.88;5061526;28;20245;-74
2022/10/05 06:19:44;;;;;;;3.75;1.35;;;;;;;14.15;86.80;101445.34;5077172;28;20290;-74
2022/10/05 06:22:34;;;;;;;1.65;0.98;;;;;;;14.15;86.75;101447.97;5059979;28;20028;-73
2022/10/05 06:25:11;;;;;;;1.52;1.42;;;;;;;14.15;86.70;101458.50;5077529;28;20339;-73
2022/10/05 06:27:55;;;;;;;2.22;1.10;;;;;;;14.14;86.94;101443.66;5059636;28;20036;-74
2022/10/05 06:30:21;;;;;;;1.50;1.40;;;;;;;14.15;86.88;101447.97;5076927;28;20346;-73
2022/10/05 06:32:49;;;;;;;2.13;1.30;;;;;;;14.15;86.88;101442.72;5059577;28;20032;-74
2022/10/05 06:35:30;;;;;;;2.42;1.55;;;;;;;14.16;87.09;101444.44;5059086;28;20066;-74
2022/10/05 06:38:14;;;;;;;1.70;1.60;;;;;;;14.16;87.11;101452.34;5077481;28;20238;-74
2022/10/05 06:40:45;;;;;;;1.88;1.60;;;;;;;14.16;86.91;101445.28;5075614;28;20367;-73
2022/10/05 06:43:37;;;;;;;2.70;1.63;;;;;;;14.16;86.71;101445.28;5077339;28;20139;-74
2022/10/05 06:46:06;;;;;;;1.63;1.52;;;;;;;14.16;86.83;101455.81;5076058;28;20216;-74
2022/10/05 06:48:59;;;;;;;2.08;1.60;;;;;;;14.17;87.20;101446.13;5059917;28;20079;-73
2022/10/05 06:51:27;;;;;;;1.95;1.40;;;;;;;14.16;87.27;101447.06;5067042;28;20032;-73
2022/10/05 06:54:20;;;;;;;2.70;1.50;;;;;;;14.15;87.34;101456.75;5072546;28;20020;-73
2022/10/05 06:57:03;;;;;;;1.70;1.60;;;;;;;14.17;87.37;101454.03;5065760;28;20665;-74
2022/10/05 06:59:59;;;;;;;1.58;1.42;;;;;;;14.16;87.42;101455.81;5067316;28;20032;-73
2022/10/05 07:02:44;;;;;;;2.35;1.52;;;;;;;14.17;87.10;101460.16;5038117;28;20144;-73
2022/10/05 07:05:40;;;;;;;1.70;1.60;;;;;;;14.17;86.99;101451.38;5065265;28;20071;-74
2022/10/05 07:08:12;;;;;;;1.40;1.13;;;;;;;14.16;87.23;101447.91;5066209;28;20067;-74
2022/10/05 07:11:03;;;;;;;2.25;1.30;;;;;;;14.17;86.93;101452.28;5064965;28;20039;-74
2022/10/05 07:13:52;;;;;;;2.10;1.30;;;;;;;14.18;87.23;101455.75;5071557;28;20359;-74
2022/10/05 07:16:36;;;;;;;5.55;1.52;;;;;;;14.18;87.25;101447.84;5068059;28;20331;-74
2022/10/05 07:19:27;;;;;;;1.77;1.52;;;;;;;14.18;87.08;101450.47;5066850;28;20086;-73
2022/10/05 07:21:56;;;;;;;5.13;1.70;;;;;;;14.18;86.98;101442.56;5052183;28;20102;-73
2022/10/05 07:24:32;;;;;;;4.15;1.70;;;;;;;14.18;87.12;101435.53;5072477;28;20317;-74
2022/10/05 07:27:16;;;;;;;1.88;1.60;;;;;;;14.20;87.06;101438.94;5070835;28;20028;-73
2022/10/05 07:29:44;;;;;;;1.80;1.50;;;;;;;14.19;86.70;101431.97;5066395;28;20032;-73
2022/10/05 07:32:34;;;;;;;1.40;1.33;;;;;;;14.20;86.94;101438.94;5066677;28;20033;-73
2022/10/05 07:38:33;;;;;;;3.15;1.55;;;;;;;14.20;87.32;101427.56;5085140;28;20043;-74
2022/10/05 07:41:13;;;;;;;5.07;1.45;;;;;;;14.21;87.14;101437.19;5056481;28;20056;-73
2022/10/05 07:43:50;;;;;;;1.92;1.80;;;;;;;14.21;87.21;101426.63;5079398;28;20028;-73
2022/10/05 07:47:02;;;;;;;2.58;1.70;;;;;;;14.23;87.36;101439.75;5055893;28;20052;-74
2022/10/05 07:50:15;;;;;;;1.70;1.60;;;;;;;14.21;87.14;101431.91;5043327;28;20143;-74
2022/10/05 07:52:48;;;;;;;2.85;1.90;;;;;;;14.22;87.24;101430.97;5058741;28;20056;-73
2022/10/05 07:55:18;;;;;;;2.80;2.45;;;;;;;14.22;87.53;101428.34;5054364;28;20028;-74
2022/10/05 07:57:50;;;;;;;3.80;1.80;;;;;;;14.21;87.42;101435.38;5051553;28;20036;-74
2022/10/05 08:00:27;;;;;;;1.80;1.70;;;;;;;14.22;87.41;101433.59;5071607;28;20185;-74
2022/10/05 08:02:57;;;;;;;7.35;1.75;;;;;;;14.23;87.58;101426.56;5055265;28;20117;-73
2022/10/05 08:05:29;;;;;;;1.70;1.60;;;;;;;14.24;87.42;101423.84;5073974;28;20503;-74
2022/10/05 08:08:34;;;;;;;3.67;2.10;;;;;;;14.25;87.53;101428.19;5070516;28;20043;-74
2022/10/05 08:11:05;;;;;;;2.85;2.03;;;;;;;14.23;87.58;101430.06;5054293;28;20036;-74
2022/10/05 08:13:41;;;;;;;2.53;2.03;;;;;;;14.24;87.65;101423.84;5066613;28;20511;-74
2022/10/05 08:16:11;;;;;;;2.08;1.95;;;;;;;14.25;87.39;101428.19;5067318;28;20033;-74
2022/10/05 08:18:58;;;;;;;8.48;2.13;;;;;;;14.26;87.58;101426.41;5046146;28;20458;-74
2022/10/05 08:21:38;;;;;;;3.83;2.00;;;;;;;14.27;87.51;101422.84;5067681;28;20415;-74
2022/10/05 08:24:28;;;;;;;1.92;1.73;;;;;;;14.27;87.45;101425.50;5059470;28;20348;-74
2022/10/05 08:27:19;;;;;;;3.80;2.22;;;;;;;14.27;87.53;101420.22;5061277;28;20052;-74
2022/10/05 08:30:09;;;;;;;4.90;1.90;;;;;;;14.27;87.44;101422.84;5072649;28;20040;-74
2022/10/05 08:32:46;;;;;;;2.45;1.60;;;;;;;14.28;87.70;101424.56;5069731;28;20036;-74
2022/10/05 08:35:20;;;;;;;1.95;1.85;;;;;;;14.28;87.46;101409.63;5068064;28;20331;-75
2022/10/05 08:37:47;;;;;;;3.78;1.85;;;;;;;14.28;87.66;101414.88;5040943;28;20053;-74
2022/10/05 08:40:22;;;;;;;2.20;2.00;;;;;;;14.29;87.39;101413.94;5068193;28;20052;-74
2022/10/05 08:43:08;;;;;;;1.70;1.60;;;;;;;14.30;87.38;101406.91;5058576;28;20028;-74
2022/10/05 08:45:55;;;;;;;2.40;1.77;;;;;;;14.31;87.69;101403.34;5072372;28;20036;-74
2022/10/05 08:48:44;;;;;;;1.98;1.73;;;;;;;14.32;87.60;101398.00;5044649;28;20033;-74
2022/10/05 08:51:54;;;;;;;3.47;1.90;;;;;;;14.33;87.53;101391.78;5053269;28;20033;-74
2022/10/05 08:54:37;;;;;;;5.10;1.80;;;;;;;14.35;87.67;101404.91;5055030;28;20350;-74
2022/10/05 08:57:20;;;;;;;6.18;1.67;;;;;;;14.36;87.83;101398.72;5072800;28;20024;-74
2022/10/05 09:00:04;;;;;;;5.85;1.80;;;;;;;14.37;87.57;101397.75;5071572;28;20077;-74
2022/10/05 09:03:07;;;;;;;3.08;1.48;;;;;;;14.37;87.56;101396.00;5059327;28;20257;-74
2022/10/05 09:06:10;;;;;;;2.33;1.70;;;;;;;14.39;87.30;101390.66;5056999;28;20033;-74
2022/10/05 09:09:16;;;;;;;1.65;1.55;;;;;;;14.40;86.71;101387.09;5065542;28;20024;-74
2022/10/05 09:12:13;;;;;;;1.45;1.35;;;;;;;14.40;86.90;101382.66;5064367;28;20342;-75
2022/10/05 09:14:47;;;;;;;1.50;1.40;;;;;;;14.40;86.90;101374.75;5013741;28;20035;-74
2022/10/05 09:17:47;;;;;;;7.65;1.85;;;;;;;14.43;87.21;101378.19;5065720;28;20040;-74
2022/10/05 09:20:33;;;;;;;2.15;1.52;;;;;;;14.44;86.90;101382.53;5062804;28;20103;-75
2022/10/05 09:23:14;;;;;;;2.45;1.50;;;;;;;14.44;87.03;101372.84;5065523;28;20051;-74
2022/10/05 09:25:44;;;;;;;7.18;1.80;;;;;;;14.47;87.10;101377.97;5046241;28;20252;-74
2022/10/05 09:28:53;;;;;;;2.60;1.83;;;;;;;14.49;86.97;101370.00;5059492;28;20039;-74
2022/10/05 09:31:36;;;;;;;1.58;1.40;;;;;;;14.48;86.87;101376.16;5044186;28;20045;-74
2022/10/05 09:34:11;;;;;;;1.85;1.27;;;;;;;14.49;86.31;101378.75;5061893;28;20036;-74
2022/10/05 09:37:04;;;;;;;5.82;1.30;;;;;;;14.51;86.20;101376.03;5063889;28;20104;-74
2022/10/05 09:39:46;;;;;;;2.40;1.52;;;;;;;14.52;86.44;101377.75;5064127;28;20168;-74
2022/10/05 09:42:31;;;;;;;2.58;1.17;;;;;;;14.53;86.29;101379.44;5050488;28;20039;-75
2022/10/05 09:45:22;;;;;;;1.27;0.98;;;;;;;14.54;86.02;101381.16;5072335;28;20251;-74
2022/10/05 09:48:03;;;;;;;1.77;1.20;;;;;;;14.54;85.93;101379.38;5064591;28;20258;-74
2022/10/05 09:50:59;;;;;;;1.80;1.13;;;;;;;14.55;86.15;101374.94;5050134;28;20037;-74
2022/10/05 09:53:52;;;;;;;6.45;1.05;;;;;;;14.54;85.42;101379.38;5075541;28;20036;-74
2022/10/05 09:56:55;;;;;;;1.10;1.00;;;;;;;14.55;85.73;101375.81;5046786;28;20035;-74
2022/10/05 09:59:35;;;;;;;1.73;1.05;;;;;;;14.56;85.68;101374.03;5062071;28;20024;-74
2022/10/05 10:02:08;;;;;;;1.30;1.20;;;;;;;14.56;85.44;101374.03;5063212;28;20035;-74
2022/10/05 10:04:54;;;;;;;10.07;1.75;;;;;;;14.56;85.47;101377.50;5067523;28;20074;-73
2022/10/05 10:07:41;;;;;;;2.00;1.17;;;;;;;14.57;85.56;101376.63;5063139;28;20024;-74
2022/10/05 10:10:39;;;;;;;4.07;1.60;;;;;;;14.57;85.50;101363.44;5066143;28;20037;-74
2022/10/05 10:13:28;;;;;;;3.33;1.40;;;;;;;14.57;85.86;101354.63;5061366;28;20054;-74
2022/10/05 10:16:18;;;;;;;1.50;1.40;;;;;;;14.58;85.99;101361.66;5050854;28;20106;-75
2022/10/05 10:19:05;;;;;;;2.05;1.58;;;;;;;14.58;86.25;101361.66;5064797;28;20272;-73
2022/10/05 10:21:47;;;;;;;3.63;1.65;;;;;;;14.58;86.15;101364.28;5071006;28;20043;-73
2022/10/05 10:24:50;;;;;;;13.15;2.22;;;;;;;14.58;86.29;101362.50;5052762;28;20123;-73
2022/10/05 10:27:39;;;;;;;1.83;1.73;;;;;;;14.59;86.37;101355.47;5058360;28;20240;-73
2022/10/05 10:30:38;;;;;;;3.75;1.88;;;;;;;14.59;86.40;101364.22;5071396;28;20055;-73
2022/10/05 10:33:14;;;;;;;1.80;1.70;;;;;;;14.59;86.32;101355.47;5052841;28;20086;-73
2022/10/05 10:35:49;;;;;;;4.45;2.00;;;;;;;14.60;86.50;101365.06;5063817;28;20032;-73
2022/10/05 10:38:36;;;;;;;2.10;2.00;;;;;;;14.61;86.78;101355.38;5076640;28;20047;-73
2022/10/05 10:41:26;;;;;;;8.15;2.20;;;;;;;14.61;86.98;101352.72;5070952;28;20038;-73
2022/10/05 10:43:57;;;;;;;3.67;2.20;;;;;;;14.61;86.94;101348.34;5067445;28;20036;-74
2022/10/05 10:47:00;;;;;;;3.38;2.10;;;;;;;14.62;86.90;101350.03;5065139;28;20027;-74
2022/10/05 10:49:41;;;;;;;2.55;1.83;;;;;;;14.62;86.98;101339.50;5066260;28;20070;-74
2022/10/05 10:52:19;;;;;;;3.95;2.40;;;;;;;14.64;87.24;101342.06;5071085;28;20640;-73
2022/10/05 10:55:03;;;;;;;;;;;;;;;14.66;87.38;101350.72;5051891;28;20327;-73
2022/10/05 10:58:03;;;;;;;3.80;2.28;;;;;;;14.67;87.25;101348.03;5063028;28;20238;-74
2022/10/05 11:00:34;;;;;;;2.40;2.20;;;;;;;14.68;87.38;101346.22;5062312;28;20255;-74
2022/10/05 11:03:19;;;;;;;3.22;2.20;;;;;;;14.68;87.12;101349.75;5062834;28;20039;-74
2022/10/05 11:06:15;;;;;;;2.45;2.25;;;;;;;14.70;87.05;101347.88;5069122;28;20033;-74
2022/10/05 11:08:56;;;;;;;2.33;2.00;;;;;;;14.71;87.44;101343.44;5065535;28;20043;-73
2022/10/05 11:11:46;;;;;;;3.17;2.70;;;;;;;14.72;87.53;101346.03;5068461;28;20051;-74
2022/10/05 11:14:45;;;;;;;2.72;2.50;;;;;;;14.73;87.33;101347.72;5074475;28;20024;-74
2022/10/05 11:17:32;;;;;;;2.80;2.50;;;;;;;14.74;87.51;101343.31;5075510;28;20326;-74
2022/10/05 11:20:13;;;;;;;3.10;2.80;;;;;;;14.74;87.44;101346.78;5074164;28;20142;-74
2022/10/05 11:22:51;;;;;;;5.20;2.63;;;;;;;14.75;87.51;101356.41;5073520;28;20031;-73
2022/10/05 11:25:34;;;;;;;8.27;2.58;;;;;;;14.77;87.29;101338.75;5054565;28;20385;-74
2022/10/05 11:28:07;;;;;;;5.38;2.60;;;;;;;14.77;87.33;101349.28;5083153;28;20092;-74
2022/10/05 11:30:35;;;;;;;4.78;2.42;;;;;;;14.78;87.20;101337.78;5066818;28;20032;-74
2022/10/05 11:33:33;;;;;;;3.58;2.70;;;;;;;14.81;87.52;101336.81;5055621;28;20033;-74
2022/10/05 11:36:36;;;;;;;4.28;2.42;;;;;;;14.81;87.20;101335.94;5045171;28;20071;-74
2022/10/05 11:39:17;;;;;;;7.60;2.90;;;;;;;14.82;87.09;101337.66;5064092;28;20099;-74
2022/10/05 11:41:51;;;;;;;4.43;2.50;;;;;;;14.81;87.08;101338.56;5054099;28;20039;-74
2022/10/05 11:44:41;;;;;;;5.03;2.83;;;;;;;14.83;87.36;101328.81;5075360;28;20036;-73
2022/10/05 11:47:10;;;;;;;4.75;2.75;;;;;;;14.83;87.11;101319.13;5061255;28;20073;-74
2022/10/05 11:50:09;;;;;;;3.80;2.88;;;;;;;14.85;87.12;101319.88;5060095;28;20094;-74
2022/10/05 11:52:52;;;;;;;2.90;2.70;;;;;;;14.86;87.15;101329.50;5070931;28;20095;-74
2022/10/05 11:55:37;;;;;;;5.78;3.10;;;;;;;14.88;87.16;101316.22;5068879;28;20052;-73
2022/10/05 11:58:26;;;;;;;3.97;2.80;;;;;;;14.89;87.44;101307.41;5057333;28;20559;-74
2022/10/05 12:00:56;;;;;;;4.95;3.17;;;;;;;14.90;87.16;101309.13;5075595;28;21219;-74
2022/10/05 12:03:45;;;;;;;3.10;2.90;;;;;;;14.91;87.34;101310.81;5069453;28;20419;-74
2022/10/05 12:06:48;;;;;;;4.05;3.15;;;;;;;14.93;87.22;101311.56;5062201;28;20043;-74
2022/10/05 12:09:35;;;;;;;5.50;2.70;;;;;;;14.95;87.17;101312.34;5074179;28;20246;-74
2022/10/05 12:12:26;;;;;;;5.77;2.80;;;;;;;14.95;87.02;101300.03;5079236;28;20045;-73
2022/10/05 12:15:02;;;;;;;4.35;2.50;;;;;;;14.97;87.14;101307.84;5054579;28;20323;-74
2022/10/05 12:17:39;;;;;;;5.43;2.78;;;;;;;14.97;86.72;101313.13;5059511;28;20056;-74
2022/10/05 12:20:10;;;;;;;3.80;2.58;;;;;;;14.98;86.92;101305.13;5069416;28;20375;-74
2022/10/05 12:22:49;;;;;;;3.25;2.70;;;;;;;14.98;86.83;101309.56;5066917;28;20024;-74
2022/10/05 12:25:33;;;;;;;3.25;2.90;;;;;;;15.01;87.09;101295.34;5065114;28;20243;-74
2022/10/05 12:28:20;;;;;;;3.47;3.17;;;;;;;15.01;87.22;101285.66;5059401;28;20028;-74
2022/10/05 12:30:59;;;;;;;4.32;3.25;;;;;;;15.01;87.25;101288.31;5077490;28;20035;-74
2022/10/05 12:33:37;;;;;;;4.30;3.05;;;;;;;15.03;87.22;101290.88;5076445;28;20028;-74
2022/10/05 12:36:06;;;;;;;;;;;;;;;15.04;86.63;101288.13;5077708;28;20188;-74
2022/10/05 12:38:40;;;;;;;4.18;2.80;;;;;;;15.06;86.98;101291.56;5076717;28;20148;-74